• Join FlightAware (Why Join?)
  • Login
  • US Flag 
05:59AM EDT


 

Airport Tracker/Info


-or-


 

Live Flight TrackerFlight Track Log ✈ SWA267 ✈ 18-Apr-2013 ✈ KMCO - KORF

Flight Track Log - Related Links

Times and Time Zones

All times are in EDT time to prevent confusion due to time zone crossing. See the SWA267 flight status page for this flight to view local times or setup timezone preferences in your user account.

Time Position Orientation Groundspeed Altitude Reporting Facility
EDT Latitude Longitude Course Direction KTS MPH feet Rate Location/Type
10:09AM 28.4000 -81.3000 150° Southeast 168 193 600  Level Orlando TRACON
10:10AM 28.3500 -81.2667 150° Southeast 219 252 2,800 1,980 Climbing Orlando TRACON
10:11AM 28.3167 -81.2167 127° Southeast 238 274 5,200 2,340 Climbing Orlando TRACON
10:12AM 28.3833 -81.1667 33° Northeast 283 326 7,800 2,760 Climbing Orlando TRACON
10:13AM 28.4500 -81.1500 12° North 301 346 10,800 2,520 Climbing Orlando TRACON
10:15AM 28.5978 -81.1972 344° North 353 406 14,400 2,280 Climbing Jacksonville Center
10:16AM 28.6922 -81.2336 341° North 353 406 16,800 2,340 Climbing Jacksonville Center
10:17AM 28.7928 -81.2722 341° North 363 418 19,100 2,100 Climbing Jacksonville Center
10:18AM 28.8936 -81.3108 341° North 373 429 21,100 1,980 Climbing Jacksonville Center
10:19AM 28.9983 -81.3494 342° North 389 448 23,100 1,860 Climbing Jacksonville Center
10:20AM 29.1053 -81.3906 341° North 395 455 24,900 1,740 Climbing Jacksonville Center
10:21AM 29.2222 -81.4031 355° North 412 474 26,600 1,740 Climbing Jacksonville Center
10:22AM 29.3394 -81.4156 355° North 417 480 28,400 1,380 Climbing Jacksonville Center
10:23AM 29.4564 -81.4211 358° North 417 480 29,400 1,500 Climbing Jacksonville Center
10:24AM 29.5756 -81.4311 356° North 422 486 31,500 2,220 Climbing Jacksonville Center
10:25AM 29.6864 -81.4439 354° North 415 478 33,900 1,620 Climbing Jacksonville Center
10:26AM 29.7928 -81.4542 355° North 403 464 34,800 900 Climbing Jacksonville Center
10:27AM 29.9036 -81.4644 355° North 392 451 35,700 840 Climbing Jacksonville Center
10:28AM 30.0122 -81.4750 355° North 392 451 36,500 600 Climbing Jacksonville Center
10:29AM 30.1208 -81.4853 355° North 387 445 37,000 240 Climbing Jacksonville Center
10:30AM 30.2317 -81.4958 355° North 387 445 37,000  Level Jacksonville Center
10:31AM 30.3425 -81.5061 355° North 393 452 37,000  Level Jacksonville Center
10:32AM 30.4511 -81.4997 North 393 452 37,000  Level Jacksonville Center
10:33AM 30.5614 -81.4886 North 388 447 37,000  Level Jacksonville Center
10:34AM 30.6764 -81.4819 North 388 447 37,000  Level Jacksonville Center
10:35AM 30.7828 -81.4708 North 393 452 37,000  Level Jacksonville Center
10:36AM 30.8931 -81.4594 North 393 452 37,000  Level Jacksonville Center
10:37AM 31.0039 -81.4528 North 393 452 37,000  Level Jacksonville Center
10:38AM 31.1144 -81.4439 North 393 452 37,000  Level Jacksonville Center
10:39AM 31.2139 -81.3792 29° Northeast 405 466 37,000  Level Jacksonville Center
10:40AM 31.3111 -81.3072 32° Northeast 405 466 37,000  Level Jacksonville Center
10:41AM 31.3958 -81.2350 36° Northeast 410 472 37,000  Level Jacksonville Center
10:42AM 31.5011 -81.1553 33° Northeast 415 478 37,000  Level Jacksonville Center
10:43AM 31.5878 -81.0853 35° Northeast 408 470 37,000  Level Jacksonville Center
10:44AM 31.6911 -81.0028 34° Northeast 408 470 37,000  Level Jacksonville Center
10:45AM 31.7861 -80.9300 33° Northeast 408 470 37,000  Level Jacksonville Center
10:46AM 31.8725 -80.8597 35° Northeast 408 470 37,000  Level Jacksonville Center
10:47AM 31.9797 -80.7764 33° Northeast 408 470 37,000  Level Jacksonville Center
10:48AM 32.0661 -80.7058 35° Northeast 413 475 37,000  Level Jacksonville Center
10:49AM 32.1753 -80.6197 34° Northeast 413 475 37,000  Level Jacksonville Center
10:50AM 32.2742 -80.5411 34° Northeast 422 486 37,000  Level Jacksonville Center
10:51AM 32.3728 -80.4600 35° Northeast 428 493 37,000  Level Jacksonville Center
10:52AM 32.4714 -80.3808 34° Northeast 423 487 37,000  Level Jacksonville Center
10:53AM 32.5681 -80.3019 35° Northeast 423 487 37,000  Level Jacksonville Center
10:54AM 32.6667 -80.2225 34° Northeast 423 487 37,000  Level Jacksonville Center
10:55AM 32.7650 -80.1406 35° Northeast 423 487 37,000  Level Jacksonville Center
10:56AM 32.8656 -80.0608 34° Northeast 428 493 37,000  Level Jacksonville Center
10:57AM 32.9594 -79.9711 39° Northeast 428 493 37,000  Level Jacksonville Center
10:58AM 33.0553 -79.8789 39° Northeast 433 498 37,000  Level Jacksonville Center
10:59AM 33.1411 -79.7992 38° Northeast 433 498 37,000  Level Jacksonville Center
11:00AM 33.2328 -79.7067 40° Northeast 433 498 37,000 -300 Level Jacksonville Center
11:01AM 33.3264 -79.6186 38° Northeast 433 498 36,500 -720 Descending Jacksonville Center
11:02AM 33.4222 -79.5256 39° Northeast 433 498 35,600 -1,080 Descending Jacksonville Center
11:04AM 33.6342 -79.3153 40° Northeast 440 506 33,000 -840 Descending Washington Center
11:05AM 33.7286 -79.2219 39° Northeast 435 501 33,000  Level Washington Center
11:06AM 33.8253 -79.1289 39° Northeast 440 506 33,000  Level Washington Center
11:07AM 33.9242 -79.0303 40° Northeast 440 506 33,000  Level Washington Center
11:08AM 34.0208 -78.9367 39° Northeast 440 506 33,000  Level Washington Center
11:09AM 34.1194 -78.8403 39° Northeast 440 506 33,000  Level Washington Center
11:10AM 34.2158 -78.7436 40° Northeast 440 506 33,000  Level Washington Center
11:11AM 34.3122 -78.6469 40° Northeast 440 506 33,000  Level Washington Center
11:12AM 34.4150 -78.5425 40° Northeast 435 501 33,000  Level Washington Center
11:13AM 34.5111 -78.4475 39° Northeast 435 501 33,000  Level Washington Center
11:14AM 34.6031 -78.3550 40° Northeast 435 501 33,000  Level Washington Center
11:15AM 34.6992 -78.2572 40° Northeast 435 501 33,000  Level Washington Center
11:16AM 34.7931 -78.1617 40° Northeast 435 501 33,000  Level Washington Center
11:17AM 34.8744 -78.0706 43° Northeast 435 501 33,000  Level Washington Center
11:18AM 34.9703 -77.9694 41° Northeast 440 506 33,000 -1,140 Level Washington Center
11:19AM 35.0681 -77.8733 39° Northeast 445 512 30,800 -2,340 Descending Washington Center
11:20AM 35.1597 -77.7744 41° Northeast 440 506 28,400 -2,640 Descending Washington Center
11:21AM 35.2594 -77.6728 40° Northeast 433 498 25,600 -2,460 Descending Washington Center
11:22AM 35.3444 -77.5833 41° Northeast 413 475 23,500 -1,320 Descending Washington Center
11:23AM 35.4375 -77.5117 32° Northeast 402 463 23,000 -300 Descending Washington Center
11:24AM 35.5344 -77.4503 27° Northeast 389 448 23,000  Level Washington Center
11:25AM 35.6314 -77.3808 30° Northeast 389 448 23,000  Level Washington Center
11:26AM 35.7264 -77.3192 28° Northeast 389 448 23,000  Level Washington Center
11:27AM 35.8253 -77.2494 30° Northeast 394 453 23,000  Level Washington Center
11:28AM 35.9222 -77.1847 28° Northeast 399 459 23,000  Level Washington Center
11:29AM 36.0147 -77.1225 29° Northeast 394 453 23,000 -780 Level Washington Center
11:30AM 36.0992 -77.0625 30° Northeast 394 453 21,500 -1,740 Descending Washington Center
11:31AM 36.1894 -76.9997 29° Northeast 380 437 19,600 -1,800 Descending Washington Center
11:32AM 36.2778 -76.9369 30° Northeast 369 425 18,000 -2,040 Descending Washington Center
11:33AM 36.3472 -76.8942 26° Northeast 355 409 16,200 -2,340 Descending Washington Center
11:33AM 36.3642 -76.8764 40° Northeast 357 411 15,700 -2,220 Descending Washington Center
11:34AM 36.3956 -76.8486 35° Northeast 357 411 14,900 -2,040 Descending Washington Center
11:34AM 36.4339 -76.7925 50° Northeast 351 404 13,700 -2,100 Descending Washington Center
11:35AM 36.4633 -76.7619 40° Northeast 348 400 12,800 -2,040 Descending Washington Center
11:35AM 36.5014 -76.7056 50° Northeast 346 398 11,700 -1,680 Descending Washington Center
11:36AM 36.5206 -76.6697 56° Northeast 330 380 11,100 -1,500 Descending Washington Center
11:36AM 36.5461 -76.6106 62° Northeast 334 384 10,200 -1,680 Descending Washington Center
11:37AM 36.5736 -76.5592 56° Northeast 316 364 9,300 -1,440 Descending Washington Center
11:37AM 36.5947 -76.5181 57° Northeast 321 369 8,800 -1,380 Descending Washington Center
11:38AM 36.6203 -76.4639 60° Northeast 297 342 7,800 -1,500 Descending Washington Center
11:38AM 36.6372 -76.4331 56° Northeast 303 349 7,300 -1,440 Descending Washington Center
11:39AM 36.6708 -76.3947 42° Northeast 291 335 6,500 -1,320 Descending Washington Center
11:39AM 36.6939 -76.3611 49° Northeast 292 336 6,000 -1,200 Descending Washington Center
11:40AM 36.7256 -76.3253 42° Northeast 277 319 5,300 -1,020 Descending Washington Center
11:40AM 36.7444 -76.2969 50° Northeast 279 321 5,000 -300 Descending Washington Center
11:41AM 36.7758 -76.2636 40° Northeast 233 268 5,000  Level Washington Center
11:41AM 36.7947 -76.2378 48° Northeast 255 293 5,000  Level Washington Center
11:42AM 36.8242 -76.2094 38° Northeast 232 267 5,000  Level Washington Center
11:42AM 36.8389 -76.1836 55° Northeast 235 270 5,000  Level Washington Center
11:43AM 36.8683 -76.1528 40° Northeast 234 269 5,000 -420 Level Washington Center
11:44AM 36.9206 -76.0908 43° Northeast 230 265 4,400 -540 Descending Washington Center